sensor_id;sensor_type;location;lat;lon;timestamp;pressure;altitude;pressure_sealevel;temperature;humidity
27144;BME280;14672;50.250;8.312;2023-08-07T00:00:56;98417.31;;;16.29;72.24
27144;BME280;14672;50.250;8.312;2023-08-07T00:03:22;98411.34;;;16.33;72.27
27144;BME280;14672;50.250;8.312;2023-08-07T00:05:48;98416.63;;;16.40;71.90
27144;BME280;14672;50.250;8.312;2023-08-07T00:08:14;98414.50;;;16.35;72.00
27144;BME280;14672;50.250;8.312;2023-08-07T00:10:43;98413.06;;;16.19;72.33
27144;BME280;14672;50.250;8.312;2023-08-07T00:13:08;98412.56;;;16.21;72.20
27144;BME280;14672;50.250;8.312;2023-08-07T00:15:37;98422.03;;;16.32;71.87
27144;BME280;14672;50.250;8.312;2023-08-07T00:18:02;98425.75;;;16.38;71.32
27144;BME280;14672;50.250;8.312;2023-08-07T00:20:28;98420.25;;;16.35;71.10
27144;BME280;14672;50.250;8.312;2023-08-07T00:22:54;98423.91;;;16.35;71.08
27144;BME280;14672;50.250;8.312;2023-08-07T00:25:19;98416.81;;;16.31;71.63
27144;BME280;14672;50.250;8.312;2023-08-07T00:27:45;98419.69;;;16.31;70.72
27144;BME280;14672;50.250;8.312;2023-08-07T00:30:11;98420.97;;;16.30;70.98
27144;BME280;14672;50.250;8.312;2023-08-07T00:32:37;98419.03;;;16.16;71.45
27144;BME280;14672;50.250;8.312;2023-08-07T00:35:04;98419.03;;;16.16;71.63
27144;BME280;14672;50.250;8.312;2023-08-07T00:37:30;98416.53;;;16.29;70.67
27144;BME280;14672;50.250;8.312;2023-08-07T00:39:56;98414.69;;;16.26;70.58
27144;BME280;14672;50.250;8.312;2023-08-07T00:42:22;98415.75;;;16.28;70.82
27144;BME280;14672;50.250;8.312;2023-08-07T00:44:47;98418.97;;;16.10;70.80
27144;BME280;14672;50.250;8.312;2023-08-07T00:47:13;98418.81;;;16.19;70.91
27144;BME280;14672;50.250;8.312;2023-08-07T00:49:39;98410.00;;;16.28;70.40
27144;BME280;14672;50.250;8.312;2023-08-07T00:52:05;98420.97;;;16.30;71.11
27144;BME280;14672;50.250;8.312;2023-08-07T00:54:32;98423.06;;;16.29;70.96
27144;BME280;14672;50.250;8.312;2023-08-07T00:57:12;98414.19;;;16.27;70.50
27144;BME280;14672;50.250;8.312;2023-08-07T00:59:40;98417.50;;;16.20;70.93
27144;BME280;14672;50.250;8.312;2023-08-07T01:02:07;98416.97;;;16.16;71.19
27144;BME280;14672;50.250;8.312;2023-08-07T01:04:33;98421.69;;;16.25;70.39
27144;BME280;14672;50.250;8.312;2023-08-07T01:06:59;98426.88;;;16.21;71.11
27144;BME280;14672;50.250;8.312;2023-08-07T01:09:25;98424.72;;;16.10;71.06
27144;BME280;14672;50.250;8.312;2023-08-07T01:12:16;98432.28;;;16.13;70.96
27144;BME280;14672;50.250;8.312;2023-08-07T01:14:55;98429.16;;;16.11;70.97
27144;BME280;14672;50.250;8.312;2023-08-07T01:17:24;98426.66;;;16.24;70.52
27144;BME280;14672;50.250;8.312;2023-08-07T01:19:51;98426.16;;;16.26;70.46
27144;BME280;14672;50.250;8.312;2023-08-07T01:22:21;98430.03;;;16.23;70.31
27144;BME280;14672;50.250;8.312;2023-08-07T01:24:50;98430.50;;;16.16;71.24
27144;BME280;14672;50.250;8.312;2023-08-07T01:30:29;98424.94;;;16.07;71.26
27144;BME280;14672;50.250;8.312;2023-08-07T01:35:36;98434.09;;;16.11;71.18
27144;BME280;14672;50.250;8.312;2023-08-07T01:38:05;98428.94;;;16.15;70.83
27144;BME280;14672;50.250;8.312;2023-08-07T01:40:32;98431.97;;;16.06;70.77
27144;BME280;14672;50.250;8.312;2023-08-07T01:42:58;98434.66;;;16.15;70.61
27144;BME280;14672;50.250;8.312;2023-08-07T01:45:26;98438.25;;;16.10;70.56
27144;BME280;14672;50.250;8.312;2023-08-07T01:47:52;98441.44;;;16.17;70.05
27144;BME280;14672;50.250;8.312;2023-08-07T01:50:19;98436.25;;;16.16;70.36
27144;BME280;14672;50.250;8.312;2023-08-07T01:52:45;98441.41;;;16.12;70.71
27144;BME280;14672;50.250;8.312;2023-08-07T01:55:16;98445.56;;;16.11;70.50
27144;BME280;14672;50.250;8.312;2023-08-07T01:57:42;98439.34;;;16.12;70.35
27144;BME280;14672;50.250;8.312;2023-08-07T02:00:09;98434.94;;;16.17;70.78
27144;BME280;14672;50.250;8.312;2023-08-07T02:02:36;98442.47;;;16.14;71.02
27144;BME280;14672;50.250;8.312;2023-08-07T02:05:03;98442.59;;;16.00;71.43
27144;BME280;14672;50.250;8.312;2023-08-07T02:07:29;98449.16;;;16.06;70.86
27144;BME280;14672;50.250;8.312;2023-08-07T02:09:55;98440.09;;;16.13;71.05
27144;BME280;14672;50.250;8.312;2023-08-07T02:12:21;98444.03;;;16.15;70.88
27144;BME280;14672;50.250;8.312;2023-08-07T02:14:47;98442.19;;;16.12;71.32
27144;BME280;14672;50.250;8.312;2023-08-07T02:17:12;98446.59;;;16.08;70.70
27144;BME280;14672;50.250;8.312;2023-08-07T02:19:38;98451.78;;;16.09;70.81
27144;BME280;14672;50.250;8.312;2023-08-07T02:22:05;98451.56;;;16.13;70.93
27144;BME280;14672;50.250;8.312;2023-08-07T02:24:31;98446.25;;;16.00;71.54
27144;BME280;14672;50.250;8.312;2023-08-07T02:26:56;98455.19;;;16.08;71.02
27144;BME280;14672;50.250;8.312;2023-08-07T02:29:22;98451.19;;;16.00;71.08
27144;BME280;14672;50.250;8.312;2023-08-07T02:31:48;98454.63;;;16.04;71.57
27144;BME280;14672;50.250;8.312;2023-08-07T02:34:13;98456.72;;;16.09;71.22
27144;BME280;14672;50.250;8.312;2023-08-07T02:36:39;98459.56;;;16.03;71.25
27144;BME280;14672;50.250;8.312;2023-08-07T02:39:06;98454.88;;;16.06;71.16
27144;BME280;14672;50.250;8.312;2023-08-07T02:41:33;98461.63;;;16.03;71.63
27144;BME280;14672;50.250;8.312;2023-08-07T02:43:58;98462.09;;;15.95;71.55
27144;BME280;14672;50.250;8.312;2023-08-07T02:46:24;98455.34;;;15.98;71.49
27144;BME280;14672;50.250;8.312;2023-08-07T02:48:50;98461.63;;;16.03;70.98
27144;BME280;14672;50.250;8.312;2023-08-07T02:51:15;98464.00;;;16.04;71.31
27144;BME280;14672;50.250;8.312;2023-08-07T02:53:41;98470.69;;;15.95;72.07
27144;BME280;14672;50.250;8.312;2023-08-07T02:56:07;98470.28;;;15.82;71.94
27144;BME280;14672;50.250;8.312;2023-08-07T02:58:33;98477.47;;;15.72;72.72
27144;BME280;14672;50.250;8.312;2023-08-07T03:01:08;98466.91;;;15.84;72.37
27144;BME280;14672;50.250;8.312;2023-08-07T03:03:34;98466.59;;;15.76;72.92
27144;BME280;14672;50.250;8.312;2023-08-07T03:06:00;98474.72;;;15.83;72.54
27144;BME280;14672;50.250;8.312;2023-08-07T03:08:26;98471.56;;;15.81;72.63
27144;BME280;14672;50.250;8.312;2023-08-07T03:10:57;98479.81;;;15.74;73.34
27144;BME280;14672;50.250;8.312;2023-08-07T03:13:25;98475.56;;;15.89;72.96
27144;BME280;14672;50.250;8.312;2023-08-07T03:16:05;98471.84;;;15.83;72.58
27144;BME280;14672;50.250;8.312;2023-08-07T03:18:33;98475.00;;;15.85;72.91
27144;BME280;14672;50.250;8.312;2023-08-07T03:21:00;98472.50;;;15.73;73.42
27144;BME280;14672;50.250;8.312;2023-08-07T03:23:27;98477.59;;;15.83;73.22
27144;BME280;14672;50.250;8.312;2023-08-07T03:26:10;98471.63;;;15.87;72.46
27144;BME280;14672;50.250;8.312;2023-08-07T03:28:37;98480.16;;;15.81;73.13
27144;BME280;14672;50.250;8.312;2023-08-07T03:31:03;98478.88;;;15.82;72.80
27144;BME280;14672;50.250;8.312;2023-08-07T03:33:29;98474.44;;;15.81;72.04
27144;BME280;14672;50.250;8.312;2023-08-07T03:35:55;98476.16;;;15.73;72.70
27144;BME280;14672;50.250;8.312;2023-08-07T03:38:21;98475.66;;;15.75;72.76
27144;BME280;14672;50.250;8.312;2023-08-07T03:40:46;98483.13;;;15.92;71.85
27144;BME280;14672;50.250;8.312;2023-08-07T03:43:12;98471.41;;;15.90;72.18
27144;BME280;14672;50.250;8.312;2023-08-07T03:45:39;98472.25;;;15.96;71.49
27144;BME280;14672;50.250;8.312;2023-08-07T03:48:07;98478.19;;;15.93;71.69
27144;BME280;14672;50.250;8.312;2023-08-07T03:50:34;98472.31;;;16.02;70.84
27144;BME280;14672;50.250;8.312;2023-08-07T03:53:03;98477.81;;;16.06;70.37
27144;BME280;14672;50.250;8.312;2023-08-07T03:55:30;98474.53;;;15.92;70.72
27144;BME280;14672;50.250;8.312;2023-08-07T03:57:56;98470.22;;;16.03;70.52
27144;BME280;14672;50.250;8.312;2023-08-07T04:00:22;98485.00;;;15.95;70.64
27144;BME280;14672;50.250;8.312;2023-08-07T04:02:47;98482.16;;;15.95;70.40
27144;BME280;14672;50.250;8.312;2023-08-07T04:05:13;98492.75;;;15.89;70.44
27144;BME280;14672;50.250;8.312;2023-08-07T04:07:39;98481.81;;;15.88;70.43
27144;BME280;14672;50.250;8.312;2023-08-07T04:10:05;98481.59;;;15.91;70.70
27144;BME280;14672;50.250;8.312;2023-08-07T04:12:31;98470.78;;;15.81;70.53
27144;BME280;14672;50.250;8.312;2023-08-07T04:14:56;98466.91;;;15.84;70.89
27144;BME280;14672;50.250;8.312;2023-08-07T04:17:22;98472.22;;;15.71;70.97
27144;BME280;14672;50.250;8.312;2023-08-07T04:19:48;98472.91;;;15.86;71.28
27144;BME280;14672;50.250;8.312;2023-08-07T04:22:13;98485.28;;;15.97;70.35
27144;BME280;14672;50.250;8.312;2023-08-07T04:24:42;98484.03;;;15.78;70.45
27144;BME280;14672;50.250;8.312;2023-08-07T04:27:11;98490.41;;;15.88;70.88
27144;BME280;14672;50.250;8.312;2023-08-07T04:29:37;98484.91;;;15.84;70.94
27144;BME280;14672;50.250;8.312;2023-08-07T04:32:03;98489.38;;;15.91;70.70
27144;BME280;14672;50.250;8.312;2023-08-07T04:34:29;98490.66;;;15.90;70.58
27144;BME280;14672;50.250;8.312;2023-08-07T04:36:55;98493.75;;;15.86;71.43
27144;BME280;14672;50.250;8.312;2023-08-07T04:39:22;98492.03;;;15.94;70.85
27144;BME280;14672;50.250;8.312;2023-08-07T04:41:48;98496.75;;;15.97;70.43
27144;BME280;14672;50.250;8.312;2023-08-07T04:44:16;98498.44;;;15.84;70.47
27144;BME280;14672;50.250;8.312;2023-08-07T04:46:42;98490.66;;;15.90;71.29
27144;BME280;14672;50.250;8.312;2023-08-07T04:49:07;98498.78;;;15.91;70.75
27144;BME280;14672;50.250;8.312;2023-08-07T04:51:33;98500.63;;;15.94;70.16
27144;BME280;14672;50.250;8.312;2023-08-07T04:53:59;98501.56;;;15.86;70.96
27144;BME280;14672;50.250;8.312;2023-08-07T04:56:25;98507.25;;;15.80;70.48
27144;BME280;14672;50.250;8.312;2023-08-07T04:58:50;98509.59;;;15.82;70.80
27144;BME280;14672;50.250;8.312;2023-08-07T05:01:16;98498.78;;;15.91;70.27
27144;BME280;14672;50.250;8.312;2023-08-07T05:03:42;98505.66;;;15.79;70.77
27144;BME280;14672;50.250;8.312;2023-08-07T05:06:07;98497.91;;;15.85;70.06
27144;BME280;14672;50.250;8.312;2023-08-07T05:08:33;98506.28;;;15.89;70.44
27144;BME280;14672;50.250;8.312;2023-08-07T05:10:59;98510.69;;;15.84;70.01
27144;BME280;14672;50.250;8.312;2023-08-07T05:13:25;98517.50;;;15.92;70.18
27144;BME280;14672;50.250;8.312;2023-08-07T05:15:50;98516.09;;;15.82;70.10
27144;BME280;14672;50.250;8.312;2023-08-07T05:18:17;98526.41;;;15.94;69.94
27144;BME280;14672;50.250;8.312;2023-08-07T05:20:43;98528.22;;;15.92;69.68
27144;BME280;14672;50.250;8.312;2023-08-07T05:23:09;98524.56;;;15.91;70.20
27144;BME280;14672;50.250;8.312;2023-08-07T05:25:36;98521.16;;;15.93;70.13
27144;BME280;14672;50.250;8.312;2023-08-07T05:28:03;98534.09;;;15.83;70.16
27144;BME280;14672;50.250;8.312;2023-08-07T05:30:31;98529.50;;;15.91;70.96
27144;BME280;14672;50.250;8.312;2023-08-07T05:32:57;98538.88;;;15.91;70.34
27144;BME280;14672;50.250;8.312;2023-08-07T05:35:23;98532.63;;;15.93;70.87
27144;BME280;14672;50.250;8.312;2023-08-07T05:37:49;98541.09;;;15.82;71.55
27144;BME280;14672;50.250;8.312;2023-08-07T05:40:14;98540.16;;;15.90;71.21
27144;BME280;14672;50.250;8.312;2023-08-07T05:42:40;98543.69;;;15.80;71.50
27144;BME280;14672;50.250;8.312;2023-08-07T05:45:08;98535.78;;;15.95;71.58
27144;BME280;14672;50.250;8.312;2023-08-07T05:47:33;98531.72;;;15.81;71.21
27144;BME280;14672;50.250;8.312;2023-08-07T05:49:59;98542.88;;;16.00;71.25
27144;BME280;14672;50.250;8.312;2023-08-07T05:52:25;98537.31;;;15.90;71.54
27144;BME280;14672;50.250;8.312;2023-08-07T05:54:51;98554.00;;;15.92;71.41
27144;BME280;14672;50.250;8.312;2023-08-07T05:57:18;98547.91;;;15.84;71.88
27144;BME280;14672;50.250;8.312;2023-08-07T05:59:43;98549.69;;;15.82;72.28
27144;BME280;14672;50.250;8.312;2023-08-07T06:02:10;98556.28;;;15.88;72.71
27144;BME280;14672;50.250;8.312;2023-08-07T06:04:38;98550.84;;;15.90;72.38
27144;BME280;14672;50.250;8.312;2023-08-07T06:07:05;98556.00;;;15.86;72.56
27144;BME280;14672;50.250;8.312;2023-08-07T06:09:31;98560.66;;;15.83;72.77
27144;BME280;14672;50.250;8.312;2023-08-07T06:11:57;98558.63;;;15.89;72.18
27144;BME280;14672;50.250;8.312;2023-08-07T06:14:22;98560.56;;;15.78;73.63
27144;BME280;14672;50.250;8.312;2023-08-07T06:16:51;98556.22;;;15.82;72.82
27144;BME280;14672;50.250;8.312;2023-08-07T06:19:17;98550.84;;;15.90;72.35
27144;BME280;14672;50.250;8.312;2023-08-07T06:21:43;98553.69;;;15.90;72.26
27144;BME280;14672;50.250;8.312;2023-08-07T06:24:09;98560.47;;;15.92;72.04
27144;BME280;14672;50.250;8.312;2023-08-07T06:26:35;98553.44;;;15.88;71.81
27144;BME280;14672;50.250;8.312;2023-08-07T06:29:01;98559.19;;;15.93;72.09
27144;BME280;14672;50.250;8.312;2023-08-07T06:31:26;98563.53;;;15.83;72.58
27144;BME280;14672;50.250;8.312;2023-08-07T06:33:52;98557.50;;;15.81;72.82
27144;BME280;14672;50.250;8.312;2023-08-07T06:36:18;98568.69;;;15.79;72.84
27144;BME280;14672;50.250;8.312;2023-08-07T06:38:43;98571.69;;;15.70;72.75
27144;BME280;14672;50.250;8.312;2023-08-07T06:41:09;98573.47;;;15.88;72.46
27144;BME280;14672;50.250;8.312;2023-08-07T06:43:35;98571.91;;;15.87;72.16
27144;BME280;14672;50.250;8.312;2023-08-07T06:46:01;98580.41;;;15.81;72.40
27144;BME280;14672;50.250;8.312;2023-08-07T06:48:26;98574.97;;;15.83;72.03
27144;BME280;14672;50.250;8.312;2023-08-07T06:50:55;98573.13;;;15.80;72.81
27144;BME280;14672;50.250;8.312;2023-08-07T06:53:21;98577.91;;;15.89;71.73
27144;BME280;14672;50.250;8.312;2023-08-07T06:55:47;98578.13;;;15.85;71.87
27144;BME280;14672;50.250;8.312;2023-08-07T06:58:13;98579.81;;;15.97;71.86
27144;BME280;14672;50.250;8.312;2023-08-07T07:00:38;98563.66;;;15.94;71.20
27144;BME280;14672;50.250;8.312;2023-08-07T07:03:04;98575.53;;;16.08;71.33
27144;BME280;14672;50.250;8.312;2023-08-07T07:05:31;98577.25;;;16.00;71.16
27144;BME280;14672;50.250;8.312;2023-08-07T07:07:58;98589.56;;;15.85;70.86
27144;BME280;14672;50.250;8.312;2023-08-07T07:10:24;98588.06;;;15.90;70.80
27144;BME280;14672;50.250;8.312;2023-08-07T07:12:49;98598.88;;;16.01;70.27
27144;BME280;14672;50.250;8.312;2023-08-07T07:15:15;98598.88;;;16.01;70.37
27144;BME280;14672;50.250;8.312;2023-08-07T07:17:42;98593.78;;;16.10;69.74
27144;BME280;14672;50.250;8.312;2023-08-07T07:20:08;98608.22;;;15.95;69.77
27144;BME280;14672;50.250;8.312;2023-08-07T07:22:36;98613.00;;;16.04;69.67
27144;BME280;14672;50.250;8.312;2023-08-07T07:25:03;98617.66;;;16.02;69.56
27144;BME280;14672;50.250;8.312;2023-08-07T07:27:29;98610.19;;;16.10;69.71
27144;BME280;14672;50.250;8.312;2023-08-07T07:29:55;98617.72;;;16.07;69.79
27144;BME280;14672;50.250;8.312;2023-08-07T07:32:21;98614.66;;;16.11;69.18
27144;BME280;14672;50.250;8.312;2023-08-07T07:34:46;98621.00;;;16.20;69.23
27144;BME280;14672;50.250;8.312;2023-08-07T07:37:13;98624.06;;;16.17;69.75
27144;BME280;14672;50.250;8.312;2023-08-07T07:39:39;98619.88;;;16.12;69.81
27144;BME280;14672;50.250;8.312;2023-08-07T07:42:07;98622.34;;;16.25;69.52
27144;BME280;14672;50.250;8.312;2023-08-07T07:44:32;98627.09;;;16.28;68.21
27144;BME280;14672;50.250;8.312;2023-08-07T07:47:00;98622.09;;;16.23;67.96
27144;BME280;14672;50.250;8.312;2023-08-07T07:49:26;98626.53;;;16.24;68.36
27144;BME280;14672;50.250;8.312;2023-08-07T07:51:52;98635.25;;;16.35;68.52
27144;BME280;14672;50.250;8.312;2023-08-07T07:54:17;98628.88;;;16.25;68.23
27144;BME280;14672;50.250;8.312;2023-08-07T07:56:43;98645.72;;;16.38;67.83
27144;BME280;14672;50.250;8.312;2023-08-07T07:59:09;98651.94;;;16.36;67.25
27144;BME280;14672;50.250;8.312;2023-08-07T08:01:35;98649.81;;;16.31;67.50
27144;BME280;14672;50.250;8.312;2023-08-07T08:04:04;98651.88;;;16.31;67.78
27144;BME280;14672;50.250;8.312;2023-08-07T08:06:30;98652.16;;;16.33;67.79
27144;BME280;14672;50.250;8.312;2023-08-07T08:08:56;98650.19;;;16.44;66.76
27144;BME280;14672;50.250;8.312;2023-08-07T08:11:22;98657.25;;;16.43;67.43
27144;BME280;14672;50.250;8.312;2023-08-07T08:13:48;98652.50;;;16.40;67.11
27144;BME280;14672;50.250;8.312;2023-08-07T08:16:14;98666.13;;;16.45;66.95
27144;BME280;14672;50.250;8.312;2023-08-07T08:18:40;98659.59;;;16.45;67.83
27144;BME280;14672;50.250;8.312;2023-08-07T08:21:07;98665.69;;;16.53;67.09
27144;BME280;14672;50.250;8.312;2023-08-07T08:23:32;98666.66;;;16.44;67.21
27144;BME280;14672;50.250;8.312;2023-08-07T08:25:58;98675.25;;;16.44;67.83
27144;BME280;14672;50.250;8.312;2023-08-07T08:28:24;98675.59;;;16.52;67.59
27144;BME280;14672;50.250;8.312;2023-08-07T08:30:50;98666.69;;;16.50;67.52
27144;BME280;14672;50.250;8.312;2023-08-07T08:33:15;98672.19;;;16.53;67.98
27144;BME280;14672;50.250;8.312;2023-08-07T08:35:45;98690.91;;;16.49;68.36
27144;BME280;14672;50.250;8.312;2023-08-07T08:38:11;98686.97;;;16.46;67.92
27144;BME280;14672;50.250;8.312;2023-08-07T08:40:38;98694.59;;;16.29;68.39
27144;BME280;14672;50.250;8.312;2023-08-07T08:43:06;98684.56;;;16.39;68.55
27144;BME280;14672;50.250;8.312;2023-08-07T08:45:32;98690.41;;;16.50;68.84
27144;BME280;14672;50.250;8.312;2023-08-07T08:48:03;98693.22;;;16.44;69.08
27144;BME280;14672;50.250;8.312;2023-08-07T08:50:30;98701.19;;;16.35;69.00
27144;BME280;14672;50.250;8.312;2023-08-07T08:52:57;98704.91;;;16.41;69.74
27144;BME280;14672;50.250;8.312;2023-08-07T08:55:25;98710.00;;;16.31;69.56
27144;BME280;14672;50.250;8.312;2023-08-07T08:57:52;98711.38;;;16.36;70.04
27144;BME280;14672;50.250;8.312;2023-08-07T09:00:23;98721.03;;;16.18;70.31
27144;BME280;14672;50.250;8.312;2023-08-07T09:02:52;98721.97;;;16.30;70.09
27144;BME280;14672;50.250;8.312;2023-08-07T09:05:19;98722.75;;;16.30;69.58
27144;BME280;14672;50.250;8.312;2023-08-07T09:07:49;98719.47;;;16.17;70.49
27144;BME280;14672;50.250;8.312;2023-08-07T09:10:15;98721.53;;;16.17;70.63
27144;BME280;14672;50.250;8.312;2023-08-07T09:13:02;98730.47;;;16.24;69.96
27144;BME280;14672;50.250;8.312;2023-08-07T09:15:33;98725.84;;;16.27;70.22
27144;BME280;14672;50.250;8.312;2023-08-07T09:17:59;98740.19;;;16.27;70.42
27144;BME280;14672;50.250;8.312;2023-08-07T09:20:26;98731.06;;;16.28;70.49
27144;BME280;14672;50.250;8.312;2023-08-07T09:22:54;98726.00;;;16.38;70.45
27144;BME280;14672;50.250;8.312;2023-08-07T09:25:33;98736.22;;;16.24;71.17
27144;BME280;14672;50.250;8.312;2023-08-07T09:28:04;98728.13;;;16.23;70.80
27144;BME280;14672;50.250;8.312;2023-08-07T09:30:32;98743.03;;;16.07;71.01
27144;BME280;14672;50.250;8.312;2023-08-07T09:32:59;98741.91;;;16.19;71.37
27144;BME280;14672;50.250;8.312;2023-08-07T09:35:26;98737.75;;;16.20;71.57
27144;BME280;14672;50.250;8.312;2023-08-07T09:37:53;98749.22;;;16.20;71.53
27144;BME280;14672;50.250;8.312;2023-08-07T09:40:19;98754.50;;;16.27;71.56
27144;BME280;14672;50.250;8.312;2023-08-07T09:42:51;98754.72;;;16.23;72.56
27144;BME280;14672;50.250;8.312;2023-08-07T09:45:27;98760.31;;;16.12;72.75
27144;BME280;14672;50.250;8.312;2023-08-07T09:48:06;98760.88;;;16.16;71.96
27144;BME280;14672;50.250;8.312;2023-08-07T09:50:32;98766.38;;;16.00;72.44
27144;BME280;14672;50.250;8.312;2023-08-07T09:52:59;98760.94;;;16.22;71.91
27144;BME280;14672;50.250;8.312;2023-08-07T09:55:25;98765.28;;;16.32;72.61
27144;BME280;14672;50.250;8.312;2023-08-07T09:57:52;98772.34;;;16.36;72.52
27144;BME280;14672;50.250;8.312;2023-08-07T10:00:19;98761.47;;;16.40;72.39
27144;BME280;14672;50.250;8.312;2023-08-07T10:02:47;98768.50;;;16.39;72.36
27144;BME280;14672;50.250;8.312;2023-08-07T10:05:14;98770.78;;;16.35;72.20
27144;BME280;14672;50.250;8.312;2023-08-07T10:07:40;98767.97;;;16.41;72.52
27144;BME280;14672;50.250;8.312;2023-08-07T10:10:10;98778.88;;;16.37;73.36
27144;BME280;14672;50.250;8.312;2023-08-07T10:12:37;98768.50;;;16.39;72.93
27144;BME280;14672;50.250;8.312;2023-08-07T10:15:04;98789.50;;;16.51;74.30
27144;BME280;14672;50.250;8.312;2023-08-07T10:17:32;98781.38;;;16.29;73.54
27144;BME280;14672;50.250;8.312;2023-08-07T10:19:58;98812.06;;;16.58;72.26
27144;BME280;14672;50.250;8.312;2023-08-07T10:22:27;98780.06;;;16.65;72.68
27144;BME280;14672;50.250;8.312;2023-08-07T10:24:59;98793.69;;;16.70;72.74
27144;BME280;14672;50.250;8.312;2023-08-07T10:27:27;98789.47;;;16.66;71.95
27144;BME280;14672;50.250;8.312;2023-08-07T10:29:55;98798.16;;;16.71;71.16
27144;BME280;14672;50.250;8.312;2023-08-07T10:32:25;98796.25;;;16.88;71.54
27144;BME280;14672;50.250;8.312;2023-08-07T10:34:53;98802.72;;;16.83;71.19
27144;BME280;14672;50.250;8.312;2023-08-07T10:37:43;98801.63;;;17.01;70.96
27144;BME280;14672;50.250;8.312;2023-08-07T10:40:12;98801.91;;;17.03;70.57
27144;BME280;14672;50.250;8.312;2023-08-07T10:43:12;98801.28;;;16.94;70.42
27144;BME280;14672;50.250;8.312;2023-08-07T10:45:38;98798.91;;;16.92;69.81
27144;BME280;14672;50.250;8.312;2023-08-07T10:48:10;98808.59;;;16.74;70.27
27144;BME280;14672;50.250;8.312;2023-08-07T10:53:36;98812.47;;;16.92;70.19
27144;BME280;14672;50.250;8.312;2023-08-07T10:56:08;98816.34;;;16.88;69.07
27144;BME280;14672;50.250;8.312;2023-08-07T10:58:37;98813.06;;;16.96;68.47
27144;BME280;14672;50.250;8.312;2023-08-07T11:01:39;98827.66;;;16.98;68.35
27144;BME280;14672;50.250;8.312;2023-08-07T11:04:14;98833.19;;;17.01;69.23
27144;BME280;14672;50.250;8.312;2023-08-07T11:06:42;98835.00;;;16.99;68.38
27144;BME280;14672;50.250;8.312;2023-08-07T11:09:10;98818.91;;;17.07;68.71
27144;BME280;14672;50.250;8.312;2023-08-07T11:11:41;98829.88;;;17.08;68.37
27144;BME280;14672;50.250;8.312;2023-08-07T11:14:14;98827.56;;;17.12;68.31
27144;BME280;14672;50.250;8.312;2023-08-07T11:16:41;98825.59;;;17.24;67.50
27144;BME280;14672;50.250;8.312;2023-08-07T11:19:08;98832.91;;;16.99;66.46
27144;BME280;14672;50.250;8.312;2023-08-07T11:21:35;98822.19;;;17.20;66.46
27144;BME280;14672;50.250;8.312;2023-08-07T11:24:02;98834.31;;;17.09;66.88
27144;BME280;14672;50.250;8.312;2023-08-07T11:26:28;98831.66;;;17.26;66.90
27144;BME280;14672;50.250;8.312;2023-08-07T11:28:57;98826.47;;;17.30;66.48
27144;BME280;14672;50.250;8.312;2023-08-07T11:31:24;98822.75;;;17.24;66.81
27144;BME280;14672;50.250;8.312;2023-08-07T11:33:57;98816.69;;;17.42;66.90
27144;BME280;14672;50.250;8.312;2023-08-07T11:36:24;98832.31;;;17.41;66.39
27144;BME280;14672;50.250;8.312;2023-08-07T11:38:50;98825.75;;;17.61;65.83
27144;BME280;14672;50.250;8.312;2023-08-07T11:41:18;98821.38;;;17.65;65.34
27144;BME280;14672;50.250;8.312;2023-08-07T11:43:45;98819.38;;;17.77;64.39
27144;BME280;14672;50.250;8.312;2023-08-07T11:46:14;98832.78;;;17.86;65.09
27144;BME280;14672;50.250;8.312;2023-08-07T11:48:42;98823.44;;;17.96;63.93
27144;BME280;14672;50.250;8.312;2023-08-07T11:51:09;98863.09;;;17.87;64.34
27144;BME280;14672;50.250;8.312;2023-08-07T11:53:40;98841.66;;;17.88;64.53
27144;BME280;14672;50.250;8.312;2023-08-07T11:56:11;98838.34;;;17.95;62.83
27144;BME280;14672;50.250;8.312;2023-08-07T11:58:45;98834.91;;;18.22;63.00
27144;BME280;14672;50.250;8.312;2023-08-07T12:01:13;98846.16;;;18.25;62.83
27144;BME280;14672;50.250;8.312;2023-08-07T12:06:16;98832.56;;;18.26;61.60
27144;BME280;14672;50.250;8.312;2023-08-07T12:08:41;98824.84;;;18.43;61.42
27144;BME280;14672;50.250;8.312;2023-08-07T12:11:10;98839.31;;;18.54;60.92
27144;BME280;14672;50.250;8.312;2023-08-07T12:13:44;98841.56;;;18.39;59.68
27144;BME280;14672;50.250;8.312;2023-08-07T12:16:12;98838.53;;;18.54;59.55
27144;BME280;14672;50.250;8.312;2023-08-07T12:18:53;98844.84;;;18.63;59.83
27144;BME280;14672;50.250;8.312;2023-08-07T12:21:21;98843.25;;;18.57;59.96
27144;BME280;14672;50.250;8.312;2023-08-07T12:23:50;98826.81;;;18.63;59.40
27144;BME280;14672;50.250;8.312;2023-08-07T12:26:17;98839.38;;;18.65;59.49
27144;BME280;14672;50.250;8.312;2023-08-07T12:28:43;98844.84;;;18.63;60.02
27144;BME280;14672;50.250;8.312;2023-08-07T12:31:09;98851.19;;;18.73;60.21
27144;BME280;14672;50.250;8.312;2023-08-07T12:33:35;98854.06;;;18.73;59.94
27144;BME280;14672;50.250;8.312;2023-08-07T12:36:01;98838.69;;;18.82;60.68
27144;BME280;14672;50.250;8.312;2023-08-07T12:38:28;98846.06;;;18.94;59.32
27144;BME280;14672;50.250;8.312;2023-08-07T12:40:55;98845.25;;;18.88;59.16
27144;BME280;14672;50.250;8.312;2023-08-07T12:43:21;98842.22;;;19.13;57.86
27144;BME280;14672;50.250;8.312;2023-08-07T12:45:47;98833.84;;;19.21;58.08
27144;BME280;14672;50.250;8.312;2023-08-07T12:48:13;98846.72;;;19.31;58.23
27144;BME280;14672;50.250;8.312;2023-08-07T12:50:39;98838.03;;;19.20;56.95
27144;BME280;14672;50.250;8.312;2023-08-07T12:53:08;98844.84;;;19.17;57.05
27144;BME280;14672;50.250;8.312;2023-08-07T12:55:34;98836.78;;;19.27;56.61
27144;BME280;14672;50.250;8.312;2023-08-07T12:58:00;98834.41;;;19.25;56.60
27144;BME280;14672;50.250;8.312;2023-08-07T13:00:26;98825.03;;;19.47;56.28
27144;BME280;14672;50.250;8.312;2023-08-07T13:02:52;98827.19;;;19.74;56.81
27144;BME280;14672;50.250;8.312;2023-08-07T13:05:20;98833.75;;;19.97;56.78
27144;BME280;14672;50.250;8.312;2023-08-07T13:07:48;98838.47;;;19.94;55.69
27144;BME280;14672;50.250;8.312;2023-08-07T13:10:16;98826.16;;;19.94;54.91
27144;BME280;14672;50.250;8.312;2023-08-07T13:12:44;98834.78;;;20.05;55.54